createdAt,value
2023-01-12T00:01:58.661Z,98728.03
2023-01-12T00:04:25.542Z,98743.16
2023-01-12T00:06:52.137Z,98741.38
2023-01-12T00:09:18.710Z,98740.00
2023-01-12T00:11:45.266Z,98732.13
2023-01-12T00:14:11.780Z,98740.72
2023-01-12T00:16:38.923Z,98737.75
2023-01-12T00:19:08.958Z,98742.09
2023-01-12T00:21:39.573Z,98736.69
2023-01-12T00:24:08.568Z,98740.75
2023-01-12T00:26:35.205Z,98750.25
2023-01-12T00:29:01.862Z,98750.00
2023-01-12T00:31:28.548Z,98743.63
2023-01-12T00:33:55.172Z,98743.81
2023-01-12T00:36:21.776Z,98751.97
2023-01-12T00:38:48.473Z,98747.91
2023-01-12T00:41:35.082Z,98759.69
2023-01-12T00:44:17.060Z,98755.44
2023-01-12T00:46:43.653Z,98756.06
2023-01-12T00:49:10.277Z,98754.97
2023-01-12T00:51:36.787Z,98761.00
2023-01-12T00:54:04.745Z,98768.72
2023-01-12T00:56:31.699Z,98761.72
2023-01-12T00:58:58.257Z,98759.81
2023-01-12T01:01:25.027Z,98767.56
2023-01-12T01:03:51.725Z,98775.28
2023-01-12T01:06:18.436Z,98779.34
2023-01-12T01:08:44.991Z,98786.59
2023-01-12T01:11:13.208Z,98787.44
2023-01-12T01:13:43.713Z,98783.81
2023-01-12T01:16:13.451Z,98799.66
2023-01-12T01:18:40.527Z,98786.25
2023-01-12T01:21:09.422Z,98784.22
2023-01-12T01:23:37.572Z,98783.81
2023-01-12T01:26:06.604Z,98793.13
2023-01-12T01:28:35.107Z,98798.56
2023-01-12T01:31:12.186Z,98799.03
2023-01-12T01:33:39.699Z,98803.03
2023-01-12T01:36:07.114Z,98803.22
2023-01-12T01:38:33.998Z,98803.41
2023-01-12T01:41:01.252Z,98810.00
2023-01-12T01:43:29.722Z,98811.22
2023-01-12T01:46:09.620Z,98805.00
2023-01-12T01:48:39.377Z,98803.69
2023-01-12T01:51:12.079Z,98804.84
2023-01-12T01:53:41.397Z,98804.25
2023-01-12T01:56:13.009Z,98812.00
2023-01-12T01:58:43.294Z,98823.41
2023-01-12T02:01:10.913Z,98820.91
2023-01-12T02:03:38.422Z,98830.88
2023-01-12T02:06:07.144Z,98826.16
2023-01-12T02:08:56.399Z,98830.16
2023-01-12T02:11:39.664Z,98831.78
2023-01-12T02:14:21.449Z,98837.06
2023-01-12T02:16:58.258Z,98835.31
2023-01-12T02:20:00.003Z,98832.13
2023-01-12T02:22:37.081Z,98841.03
2023-01-12T02:25:38.745Z,98845.38
2023-01-12T02:28:17.012Z,98841.41
2023-01-12T02:31:14.133Z,98844.59
2023-01-12T02:34:01.535Z,98847.28
2023-01-12T02:36:58.766Z,98849.81
2023-01-12T02:39:33.232Z,98855.34
2023-01-12T02:42:27.772Z,98864.59
2023-01-12T02:45:08.340Z,98860.59
2023-01-12T02:47:46.408Z,98861.00
2023-01-12T02:50:20.167Z,98855.84
2023-01-12T02:52:53.892Z,98852.44
2023-01-12T02:55:22.497Z,98857.75
2023-01-12T02:57:49.666Z,98852.34
2023-01-12T03:00:18.323Z,98864.53
2023-01-12T03:02:44.887Z,98865.81
2023-01-12T03:05:11.536Z,98857.13
2023-01-12T03:07:47.402Z,98865.63
2023-01-12T03:10:14.914Z,98863.00
2023-01-12T03:12:43.735Z,98859.75
2023-01-12T03:15:13.802Z,98856.13
2023-01-12T03:17:45.765Z,98859.03
2023-01-12T03:20:19.110Z,98866.56
2023-01-12T03:22:49.628Z,98863.72
2023-01-12T03:25:18.203Z,98862.72
2023-01-12T03:27:50.993Z,98860.91
2023-01-12T03:30:36.881Z,98857.28
2023-01-12T03:33:05.079Z,98864.28
2023-01-12T03:35:38.627Z,98870.53
2023-01-12T03:38:16.824Z,98868.25
2023-01-12T03:40:49.646Z,98863.16
2023-01-12T03:43:23.960Z,98874.69
2023-01-12T03:46:05.884Z,98866.84
2023-01-12T03:48:46.938Z,98873.25
2023-01-12T03:51:21.959Z,98872.53
2023-01-12T03:53:50.750Z,98869.78
2023-01-12T03:56:20.347Z,98873.28
2023-01-12T03:58:50.981Z,98873.66
2023-01-12T04:01:17.843Z,98877.94
2023-01-12T04:03:44.729Z,98872.69
2023-01-12T04:06:11.339Z,98874.41
2023-01-12T04:08:38.089Z,98873.56
2023-01-12T04:11:19.970Z,98875.72
2023-01-12T04:13:46.683Z,98874.09
2023-01-12T04:16:13.679Z,98870.78
2023-01-12T04:18:40.231Z,98873.06
2023-01-12T04:21:06.826Z,98873.13
2023-01-12T04:23:33.377Z,98856.22
2023-01-12T04:25:59.965Z,98867.88
2023-01-12T04:28:26.499Z,98859.75
2023-01-12T04:30:53.061Z,98870.44
2023-01-12T04:33:19.575Z,98860.00
2023-01-12T04:35:47.283Z,98859.38
2023-01-12T04:38:14.237Z,98858.47
2023-01-12T04:40:40.800Z,98859.56
2023-01-12T04:43:09.899Z,98854.44
2023-01-12T04:45:40.380Z,98853.06
2023-01-12T04:48:11.308Z,98851.09
2023-01-12T04:50:39.429Z,98862.75
2023-01-12T04:53:08.151Z,98855.56
2023-01-12T04:55:37.565Z,98864.13
2023-01-12T04:58:04.273Z,98870.84
2023-01-12T05:00:31.132Z,98872.34
2023-01-12T05:03:02.209Z,98873.03
2023-01-12T05:05:30.196Z,98874.66
2023-01-12T05:08:16.298Z,98878.97
2023-01-12T05:10:42.838Z,98885.69
2023-01-12T05:13:09.435Z,98874.25
2023-01-12T05:15:36.001Z,98870.50
2023-01-12T05:18:02.536Z,98860.34
2023-01-12T05:20:29.039Z,98854.78
2023-01-12T05:22:56.645Z,98860.22
2023-01-12T05:25:23.179Z,98868.22
2023-01-12T05:27:49.739Z,98874.94
2023-01-12T05:30:16.541Z,98875.94
2023-01-12T05:32:43.699Z,98880.69
2023-01-12T05:35:10.323Z,98885.59
2023-01-12T05:37:36.915Z,98891.16
2023-01-12T05:40:03.951Z,98893.47
2023-01-12T05:42:45.783Z,98896.09
2023-01-12T05:45:12.588Z,98900.03
2023-01-12T05:47:39.162Z,98897.22
2023-01-12T05:50:06.241Z,98907.03
2023-01-12T05:52:32.802Z,98894.59
2023-01-12T05:54:59.417Z,98903.09
2023-01-12T05:57:26.001Z,98899.34
2023-01-12T05:59:52.550Z,98892.09
2023-01-12T06:02:21.613Z,98896.19
2023-01-12T06:04:48.794Z,98898.00
2023-01-12T06:07:16.367Z,98902.91
2023-01-12T06:09:43.142Z,98902.91
2023-01-12T06:12:27.282Z,98907.81
2023-01-12T06:14:53.830Z,98909.81
2023-01-12T06:17:20.406Z,98907.38
2023-01-12T06:19:47.028Z,98911.13
2023-01-12T06:22:13.556Z,98911.44
2023-01-12T06:24:40.061Z,98905.22
2023-01-12T06:27:06.787Z,98900.47
2023-01-12T06:29:33.284Z,98901.94
2023-01-12T06:31:59.840Z,98903.75
2023-01-12T06:34:26.430Z,98896.06
2023-01-12T06:36:52.998Z,98895.25
2023-01-12T06:39:19.586Z,98890.63
2023-01-12T06:42:01.802Z,98894.28
2023-01-12T06:44:28.389Z,98896.06
2023-01-12T06:46:58.289Z,98904.44
2023-01-12T06:49:28.111Z,98908.22
2023-01-12T06:51:54.728Z,98913.63
2023-01-12T06:54:21.332Z,98911.97
2023-01-12T06:56:48.017Z,98904.63
2023-01-12T06:59:14.695Z,98919.34
2023-01-12T07:01:41.965Z,98915.75
2023-01-12T07:04:08.667Z,98916.72
2023-01-12T07:06:35.348Z,98921.47
2023-01-12T07:09:02.793Z,98918.69
2023-01-12T07:11:29.371Z,98917.06
2023-01-12T07:13:55.995Z,98911.16
2023-01-12T07:16:22.782Z,98908.38
2023-01-12T07:18:49.700Z,98907.56
2023-01-12T07:21:18.072Z,98911.84
2023-01-12T07:23:44.805Z,98917.88
2023-01-12T07:26:12.257Z,98915.59
2023-01-12T07:28:39.303Z,98906.91
2023-01-12T07:31:06.905Z,98906.59
2023-01-12T07:33:34.465Z,98901.19
2023-01-12T07:36:02.670Z,98902.34
2023-01-12T07:38:30.538Z,98909.19
2023-01-12T07:41:00.434Z,98902.34
2023-01-12T07:43:27.238Z,98902.66
2023-01-12T07:45:57.503Z,98909.34
2023-01-12T07:48:26.590Z,98908.22
2023-01-12T07:50:53.723Z,98903.47
2023-01-12T07:53:20.729Z,98902.63
2023-01-12T07:55:47.344Z,98902.97
2023-01-12T07:58:13.977Z,98901.47
2023-01-12T08:00:40.562Z,98901.94
2023-01-12T08:03:10.402Z,98900.47
2023-01-12T08:05:38.675Z,98897.00
2023-01-12T08:08:06.167Z,98903.63
2023-01-12T08:10:32.735Z,98896.41
2023-01-12T08:12:59.415Z,98896.16
2023-01-12T08:15:27.809Z,98895.75
2023-01-12T08:18:02.215Z,98889.59
2023-01-12T08:20:33.733Z,98892.63
2023-01-12T08:23:08.223Z,98895.09
2023-01-12T08:25:44.424Z,98904.59
2023-01-12T08:28:17.231Z,98904.25
2023-01-12T08:30:46.894Z,98907.34
2023-01-12T08:33:13.683Z,98900.94
2023-01-12T08:35:40.490Z,98906.28
2023-01-12T08:38:07.094Z,98894.91
2023-01-12T08:40:48.946Z,98892.94
2023-01-12T08:43:35.557Z,98888.63
2023-01-12T08:46:07.937Z,98883.47
2023-01-12T08:48:36.032Z,98893.63
2023-01-12T08:51:04.170Z,98899.97
2023-01-12T08:53:31.215Z,98892.72
2023-01-12T08:55:57.873Z,98888.75
2023-01-12T08:58:24.442Z,98893.81
2023-01-12T09:00:51.187Z,98896.09
2023-01-12T09:03:17.864Z,98900.81
2023-01-12T09:05:45.732Z,98904.56
2023-01-12T09:08:12.299Z,98908.47
2023-01-12T09:10:38.960Z,98897.22
2023-01-12T09:13:05.515Z,98907.38
2023-01-12T09:15:32.133Z,98908.66
2023-01-12T09:17:58.743Z,98901.38
2023-01-12T09:20:25.335Z,98906.31
2023-01-12T09:22:51.965Z,98908.19
2023-01-12T09:25:18.560Z,98908.84
2023-01-12T09:27:45.182Z,98899.41
2023-01-12T09:30:12.070Z,98908.56
2023-01-12T09:32:38.877Z,98896.06
2023-01-12T09:35:06.106Z,98902.69
2023-01-12T09:37:32.729Z,98892.34
2023-01-12T09:40:00.496Z,98892.16
2023-01-12T09:42:42.483Z,98891.59
2023-01-12T09:45:36.604Z,98896.06
2023-01-12T09:48:04.126Z,98884.94
2023-01-12T09:50:36.922Z,98885.81
2023-01-12T09:53:07.301Z,98885.38
2023-01-12T09:55:44.647Z,98879.00
2023-01-12T09:58:41.814Z,98878.44
2023-01-12T10:01:24.014Z,98867.69
2023-01-12T10:03:55.549Z,98865.91
2023-01-12T10:06:22.516Z,98869.75
2023-01-12T10:08:54.136Z,98866.09
2023-01-12T10:11:25.978Z,98875.47
2023-01-12T10:14:13.524Z,98879.09
2023-01-12T10:16:40.147Z,98866.34
2023-01-12T10:19:22.378Z,98865.94
2023-01-12T10:21:51.477Z,98858.41
2023-01-12T10:24:21.396Z,98849.69
2023-01-12T10:26:56.502Z,98841.38
2023-01-12T10:29:24.014Z,98846.84
2023-01-12T10:31:50.687Z,98833.03
2023-01-12T10:34:18.632Z,98834.91
2023-01-12T10:36:49.676Z,98829.25
2023-01-12T10:39:32.970Z,98822.38
2023-01-12T10:42:32.139Z,98815.44
2023-01-12T10:45:16.484Z,98817.47
2023-01-12T10:47:48.591Z,98812.00
2023-01-12T10:50:28.694Z,98798.38
2023-01-12T10:53:00.073Z,98808.16
2023-01-12T10:55:31.432Z,98799.38
2023-01-12T10:57:58.687Z,98802.03
2023-01-12T11:00:27.828Z,98798.59
2023-01-12T11:02:54.732Z,98796.53
2023-01-12T11:05:38.715Z,98787.41
2023-01-12T11:08:22.066Z,98777.03
2023-01-12T11:10:48.674Z,98775.81
2023-01-12T11:13:37.507Z,98773.97
2023-01-12T11:16:15.890Z,98771.53
2023-01-12T11:18:48.812Z,98773.56
2023-01-12T11:21:19.955Z,98769.09
2023-01-12T11:23:58.677Z,98766.03
2023-01-12T11:26:55.925Z,98758.13
2023-01-12T11:29:41.781Z,98749.78
2023-01-12T11:32:16.993Z,98745.13
2023-01-12T11:35:11.409Z,98740.22
2023-01-12T11:37:42.557Z,98729.44
2023-01-12T11:40:29.084Z,98721.75
2023-01-12T11:43:16.560Z,98715.88
2023-01-12T11:46:03.615Z,98720.31
2023-01-12T11:48:46.080Z,98700.63
2023-01-12T11:51:15.653Z,98702.44
2023-01-12T11:53:42.862Z,98703.44
2023-01-12T11:56:21.599Z,98695.53
2023-01-12T11:59:10.550Z,98684.97
2023-01-12T12:01:47.469Z,98687.38
2023-01-12T12:04:49.638Z,98688.38
2023-01-12T12:07:37.289Z,98680.28
2023-01-12T12:10:18.636Z,98672.00
2023-01-12T12:13:13.202Z,98668.28
2023-01-12T12:16:10.479Z,98666.28
2023-01-12T12:19:12.261Z,98669.13
2023-01-12T12:22:09.373Z,98670.72
2023-01-12T12:24:38.025Z,98672.13
2023-01-12T12:27:19.984Z,98663.41
2023-01-12T12:30:02.958Z,98654.72
2023-01-12T12:32:39.314Z,98660.34
2023-01-12T12:35:21.174Z,98663.63
2023-01-12T12:38:04.810Z,98653.47
2023-01-12T12:40:57.640Z,98644.75
2023-01-12T12:43:49.883Z,98639.91
2023-01-12T12:46:39.807Z,98643.97
2023-01-12T12:49:14.342Z,98630.16
2023-01-12T12:51:41.925Z,98633.41
2023-01-12T12:54:17.202Z,98625.88
2023-01-12T12:56:44.735Z,98624.25
2023-01-12T12:59:31.231Z,98624.63
2023-01-12T13:02:00.258Z,98620.38
2023-01-12T13:04:42.248Z,98612.06
2023-01-12T13:07:16.292Z,98610.84
2023-01-12T13:09:43.607Z,98613.47
2023-01-12T13:12:29.997Z,98610.00
2023-01-12T13:15:18.317Z,98613.06
2023-01-12T13:17:46.513Z,98604.16
2023-01-12T13:20:24.486Z,98614.69
2023-01-12T13:22:52.220Z,98614.69
2023-01-12T13:25:19.841Z,98610.00
2023-01-12T13:27:55.496Z,98602.94
2023-01-12T13:30:40.455Z,98599.88
2023-01-12T13:33:24.354Z,98601.69
2023-01-12T13:35:50.955Z,98592.75
2023-01-12T13:38:32.805Z,98592.75
2023-01-12T13:41:17.872Z,98596.44
2023-01-12T13:43:53.021Z,98593.38
2023-01-12T13:46:27.631Z,98591.38
2023-01-12T13:48:55.986Z,98585.69
2023-01-12T13:51:34.893Z,98589.97
2023-01-12T13:54:04.714Z,98587.50
2023-01-12T13:56:31.935Z,98586.28
2023-01-12T13:59:01.803Z,98594.03
2023-01-12T14:01:33.626Z,98592.97
2023-01-12T14:04:18.746Z,98591.56
2023-01-12T14:07:02.541Z,98594.44
2023-01-12T14:09:44.483Z,98595.03
2023-01-12T14:12:36.656Z,98598.69
2023-01-12T14:15:33.933Z,98588.75
2023-01-12T14:18:04.142Z,98592.66
2023-01-12T14:20:31.458Z,98588.44
2023-01-12T14:23:18.557Z,98583.53
2023-01-12T14:25:46.948Z,98581.69
2023-01-12T14:28:19.732Z,98576.00
2023-01-12T14:30:51.293Z,98581.03
2023-01-12T14:33:22.175Z,98568.75
2023-01-12T14:35:53.238Z,98570.00
2023-01-12T14:38:19.830Z,98573.28
2023-01-12T14:41:00.292Z,98572.38
2023-01-12T14:43:46.855Z,98561.63
2023-01-12T14:46:25.700Z,98574.72
2023-01-12T14:49:26.197Z,98559.63
2023-01-12T14:51:59.304Z,98557.69
2023-01-12T14:54:31.603Z,98563.22
2023-01-12T14:56:59.760Z,98572.09
2023-01-12T14:59:36.948Z,98567.91
2023-01-12T15:02:23.907Z,98572.25
2023-01-12T15:05:06.810Z,98560.56
2023-01-12T15:07:37.832Z,98560.75
2023-01-12T15:10:19.668Z,98557.94
2023-01-12T15:12:52.048Z,98552.69
2023-01-12T15:15:22.104Z,98554.28
2023-01-12T15:18:06.338Z,98554.78
2023-01-12T15:20:54.047Z,98549.25
2023-01-12T15:23:42.474Z,98550.72
2023-01-12T15:26:09.047Z,98549.94
2023-01-12T15:28:35.628Z,98555.50
2023-01-12T15:31:02.182Z,98551.25
2023-01-12T15:33:28.783Z,98552.88
2023-01-12T15:35:55.340Z,98550.25
2023-01-12T15:38:21.959Z,98551.09
2023-01-12T15:40:48.648Z,98553.09
2023-01-12T15:43:16.756Z,98549.63
2023-01-12T15:45:46.323Z,98560.38
2023-01-12T15:48:14.356Z,98557.72
2023-01-12T15:50:43.129Z,98563.63
2023-01-12T15:53:14.330Z,98552.63
2023-01-12T15:55:42.036Z,98555.84
2023-01-12T15:58:08.733Z,98547.94
2023-01-12T16:00:35.922Z,98556.03
2023-01-12T16:03:02.976Z,98549.53
2023-01-12T16:05:29.797Z,98561.88
2023-01-12T16:07:56.450Z,98558.81
2023-01-12T16:10:23.227Z,98551.50
2023-01-12T16:12:49.908Z,98554.31
2023-01-12T16:15:19.941Z,98551.25
2023-01-12T16:17:46.748Z,98558.72
2023-01-12T16:20:16.169Z,98564.34
2023-01-12T16:22:43.622Z,98557.66
2023-01-12T16:25:11.187Z,98558.03
2023-01-12T16:27:38.183Z,98562.66
2023-01-12T16:30:07.918Z,98563.44
2023-01-12T16:32:34.525Z,98558.72
2023-01-12T16:35:01.421Z,98565.56
2023-01-12T16:37:30.830Z,98564.34
2023-01-12T16:39:57.491Z,98563.09
2023-01-12T16:42:24.115Z,98560.59
2023-01-12T16:44:50.817Z,98557.13
2023-01-12T16:47:19.747Z,98568.59
2023-01-12T16:49:51.059Z,98564.09
2023-01-12T16:52:19.669Z,98557.53
2023-01-12T16:54:47.701Z,98566.38
2023-01-12T16:57:16.843Z,98566.13
2023-01-12T16:59:45.869Z,98572.13
2023-01-12T17:02:17.704Z,98582.00
2023-01-12T17:04:45.724Z,98573.66
2023-01-12T17:07:12.551Z,98560.06
2023-01-12T17:09:40.693Z,98567.31
2023-01-12T17:12:08.272Z,98564.88
2023-01-12T17:14:35.817Z,98556.38
2023-01-12T17:17:06.314Z,98555.13
2023-01-12T17:19:35.668Z,98555.88
2023-01-12T17:22:04.158Z,98550.94
2023-01-12T17:24:32.029Z,98552.72
2023-01-12T17:26:59.371Z,98550.50
2023-01-12T17:29:27.024Z,98547.59
2023-01-12T17:31:56.683Z,98554.47
2023-01-12T17:34:23.436Z,98544.97
2023-01-12T17:36:50.068Z,98544.53
2023-01-12T17:39:16.767Z,98542.81
2023-01-12T17:41:58.711Z,98547.16
2023-01-12T17:44:25.291Z,98544.72
2023-01-12T17:46:52.363Z,98541.97
2023-01-12T17:49:19.083Z,98540.44
2023-01-12T17:51:45.647Z,98536.16
2023-01-12T17:54:15.168Z,98535.97
2023-01-12T17:56:42.027Z,98541.63
2023-01-12T17:59:11.220Z,98539.16
2023-01-12T18:01:38.013Z,98549.50
2023-01-12T18:04:04.919Z,98552.19
2023-01-12T18:06:31.742Z,98554.63
2023-01-12T18:08:59.765Z,98554.63
2023-01-12T18:11:27.251Z,98563.44
2023-01-12T18:13:54.295Z,98553.72
2023-01-12T18:16:21.648Z,98548.78
2023-01-12T18:18:48.419Z,98546.09
2023-01-12T18:21:18.561Z,98544.63
2023-01-12T18:23:45.139Z,98543.56
2023-01-12T18:26:17.902Z,98547.91
2023-01-12T18:28:44.620Z,98546.59
2023-01-12T18:31:15.021Z,98537.00
2023-01-12T18:33:41.650Z,98531.59
2023-01-12T18:36:09.304Z,98530.78
2023-01-12T18:38:36.682Z,98525.09
2023-01-12T18:41:18.621Z,98524.63
2023-01-12T18:43:46.718Z,98519.47
2023-01-12T18:46:13.346Z,98524.38
2023-01-12T18:48:40.199Z,98527.44
2023-01-12T18:51:25.354Z,98531.25
2023-01-12T18:53:55.320Z,98523.91
2023-01-12T18:56:21.864Z,98513.78
2023-01-12T18:58:48.939Z,98513.31
2023-01-12T19:01:22.206Z,98515.72
2023-01-12T19:03:49.890Z,98513.78
2023-01-12T19:06:39.098Z,98514.97
2023-01-12T19:09:21.025Z,98507.91
2023-01-12T19:11:47.597Z,98507.91
2023-01-12T19:14:29.536Z,98510.97
2023-01-12T19:17:11.291Z,98510.97
2023-01-12T19:19:38.051Z,98506.81
2023-01-12T19:22:19.789Z,98503.66
2023-01-12T19:25:01.858Z,98502.03
2023-01-12T19:27:43.623Z,98497.59
2023-01-12T19:30:11.225Z,98498.88
2023-01-12T19:32:37.775Z,98498.44
2023-01-12T19:35:10.916Z,98497.25
2023-01-12T19:37:39.716Z,98497.88
2023-01-12T19:40:17.495Z,98498.50
2023-01-12T19:42:59.347Z,98490.66
2023-01-12T19:45:25.907Z,98488.03
2023-01-12T19:47:52.557Z,98481.16
2023-01-12T19:50:19.464Z,98481.16
2023-01-12T19:52:46.203Z,98485.50
2023-01-12T19:55:14.301Z,98477.47
2023-01-12T19:57:42.999Z,98477.00
2023-01-12T20:00:14.129Z,98477.47
2023-01-12T20:02:41.894Z,98480.16
2023-01-12T20:05:08.741Z,98484.22
2023-01-12T20:07:35.293Z,98465.78
2023-01-12T20:10:02.096Z,98468.03
2023-01-12T20:12:28.938Z,98472.66
2023-01-12T20:14:55.769Z,98470.22
2023-01-12T20:17:22.527Z,98468.75
2023-01-12T20:19:50.556Z,98472.19
2023-01-12T20:22:17.148Z,98468.91
2023-01-12T20:24:43.764Z,98472.88
2023-01-12T20:27:10.410Z,98474.06
2023-01-12T20:29:36.989Z,98476.56
2023-01-12T20:32:03.615Z,98474.03
2023-01-12T20:34:31.539Z,98475.75
2023-01-12T20:36:58.178Z,98477.25
2023-01-12T20:39:24.760Z,98480.22
2023-01-12T20:41:51.369Z,98470.91
2023-01-12T20:44:21.001Z,98464.75
2023-01-12T20:46:47.648Z,98464.41
2023-01-12T20:49:15.747Z,98457.19
2023-01-12T20:51:42.351Z,98454.41
2023-01-12T20:54:10.037Z,98453.56
2023-01-12T20:56:38.275Z,98453.56
2023-01-12T20:59:05.824Z,98446.38
2023-01-12T21:01:32.559Z,98463.34
2023-01-12T21:03:59.141Z,98460.22
2023-01-12T21:06:27.359Z,98454.16
2023-01-12T21:08:54.230Z,98458.56
2023-01-12T21:11:23.541Z,98459.19
2023-01-12T21:13:54.608Z,98450.91
2023-01-12T21:16:22.409Z,98449.59
2023-01-12T21:18:49.243Z,98462.44
2023-01-12T21:21:16.708Z,98461.78
2023-01-12T21:23:43.600Z,98451.50
2023-01-12T21:26:11.100Z,98461.13
2023-01-12T21:28:39.872Z,98454.91
2023-01-12T21:31:08.585Z,98452.75
2023-01-12T21:33:35.512Z,98452.88
2023-01-12T21:36:02.977Z,98453.06
2023-01-12T21:38:29.685Z,98444.91
2023-01-12T21:41:01.883Z,98449.06
2023-01-12T21:43:35.777Z,98446.88
2023-01-12T21:46:10.348Z,98443.44
2023-01-12T21:48:41.567Z,98450.75
2023-01-12T21:51:16.743Z,98450.63
2023-01-12T21:53:44.141Z,98451.78
2023-01-12T21:56:12.567Z,98452.28
2023-01-12T21:58:39.542Z,98450.22
2023-01-12T22:01:15.771Z,98451.13
2023-01-12T22:03:42.452Z,98440.81
2023-01-12T22:06:11.443Z,98457.53
2023-01-12T22:08:39.729Z,98452.75
2023-01-12T22:11:08.790Z,98447.66
2023-01-12T22:13:36.166Z,98446.84
2023-01-12T22:16:05.944Z,98442.25
2023-01-12T22:18:32.715Z,98444.03
2023-01-12T22:21:02.368Z,98440.22
2023-01-12T22:23:29.059Z,98435.16
2023-01-12T22:25:55.926Z,98433.41
2023-01-12T22:28:22.500Z,98441.38
2023-01-12T22:30:49.026Z,98437.72
2023-01-12T22:33:15.912Z,98440.88
2023-01-12T22:35:42.481Z,98432.53
2023-01-12T22:38:09.060Z,98432.53
2023-01-12T22:40:35.594Z,98432.13
2023-01-12T22:43:17.411Z,98428.25
2023-01-12T22:45:44.108Z,98418.94
2023-01-12T22:48:10.677Z,98416.59
2023-01-12T22:50:37.336Z,98422.16
2023-01-12T22:53:03.953Z,98425.53
2023-01-12T22:55:35.087Z,98424.53
2023-01-12T22:58:03.783Z,98422.47
2023-01-12T23:00:30.322Z,98423.41
2023-01-12T23:03:00.014Z,98429.19
2023-01-12T23:05:28.914Z,98433.75
2023-01-12T23:07:56.221Z,98436.84
2023-01-12T23:10:22.810Z,98425.69
2023-01-12T23:13:04.788Z,98431.13
2023-01-12T23:15:31.361Z,98425.69
2023-01-12T23:17:59.503Z,98419.84
2023-01-12T23:20:26.502Z,98419.94
2023-01-12T23:22:53.541Z,98414.72
2023-01-12T23:25:20.587Z,98410.25
2023-01-12T23:27:47.159Z,98410.97
2023-01-12T23:30:13.914Z,98407.75
2023-01-12T23:32:40.431Z,98402.06
2023-01-12T23:35:07.200Z,98406.22
2023-01-12T23:37:33.731Z,98406.22
2023-01-12T23:40:00.526Z,98408.66
2023-01-12T23:42:27.506Z,98398.53
2023-01-12T23:44:54.040Z,98394.03
2023-01-12T23:47:20.664Z,98399.56
2023-01-12T23:49:47.240Z,98401.34
2023-01-12T23:52:13.778Z,98399.47
2023-01-12T23:54:40.316Z,98403.06
2023-01-12T23:57:06.831Z,98396.19
2023-01-12T23:59:33.462Z,98399.63
